Terminal Aerodrome Forecast
Issued by NWS Springfield, MO

Home | Current Version | Previous Version | Text Only | Print | Product List | Glossary On
Versions: 1 2 3 4 5 6 7 8 9 10 11 12 13 14 15 16 17 18 19 20 21 22
034
FTUS43 KSGF 301358 AAD
TAFSGF
TAF AMD
KSGF 301358Z 3014/0112 20011KT P6SM OVC012
     FM301600 21010KT P6SM BKN025
     FM301700 22011KT P6SM BKN035
     FM301800 23011KT P6SM SCT045
     FM010000 27005KT P6SM FEW200=

USA.gov is the U.S. government's official web portal to all federal, state and local government web resources and services.